Time;durP1;ratioP1;P1;durP2;ratioP2;P2;SDS_P1;SDS_P2;PMS_P1;PMS_P2;Temp;Humidity;BMP_temperature;BMP_pressure;BME280_temperature;BME280_humidity;BME280_pressure;Samples;Min_cycle;Max_cycle;Signal;HPM_P1;HPM_P2
2022/06/05 00:01:50;;;;;;;8.38;5.75;;;;;;;20.06;62.77;95007.00;5126996;28;20485;-71
2022/06/05 00:04:24;;;;;;;6.78;5.40;;;;;;;20.09;62.52;95006.66;5113619;28;20527;-70
2022/06/05 00:07:11;;;;;;;8.70;5.32;;;;;;;19.99;62.99;95000.81;5113978;28;20221;-71
2022/06/05 00:09:38;;;;;;;6.32;5.47;;;;;;;20.02;62.93;94997.00;5113989;28;20030;-70
2022/06/05 00:12:10;;;;;;;6.80;5.32;;;;;;;19.98;63.03;95008.91;5131015;27;20528;-71
2022/06/05 00:14:39;;;;;;;9.30;6.25;;;;;;;19.96;62.99;94993.28;5096780;28;20412;-70
2022/06/05 00:17:09;;;;;;;6.38;5.13;;;;;;;19.91;63.14;94981.63;5097300;28;20039;-70
2022/06/05 00:19:37;;;;;;;6.30;5.45;;;;;;;19.88;63.41;94987.25;5113855;28;20027;-70
2022/06/05 00:22:02;;;;;;;10.68;5.80;;;;;;;19.84;63.78;94992.91;5113713;28;20038;-70
2022/06/05 00:24:28;;;;;;;7.43;5.35;;;;;;;19.84;63.54;94994.72;5130750;27;20023;-71
2022/06/05 00:26:59;;;;;;;6.05;5.45;;;;;;;19.83;63.52;94990.44;5117101;27;20458;-70
2022/06/05 00:29:28;;;;;;;;;;;;;;;19.85;63.70;94993.72;5134597;27;20035;-70
2022/06/05 00:32:31;;;;;;;8.77;5.90;;;;;;;19.82;63.74;94996.72;5135456;27;19915;-71
2022/06/05 00:34:56;;;;;;;7.55;5.45;;;;;;;19.84;63.27;95002.63;5119250;27;20027;-70
2022/06/05 00:37:27;;;;;;;9.93;5.50;;;;;;;19.76;63.28;95003.50;5135412;27;20392;-70
2022/06/05 00:40:19;;;;;;;8.38;5.65;;;;;;;19.82;63.42;95008.06;5134027;27;20084;-70
2022/06/05 00:42:45;;;;;;;8.13;5.50;;;;;;;19.85;63.51;95007.72;5119320;27;20110;-70
2022/06/05 00:45:11;;;;;;;10.45;5.85;;;;;;;19.89;63.95;95010.78;5116720;27;20114;-70
2022/06/05 00:47:37;;;;;;;6.28;5.68;;;;;;;19.92;64.03;95015.72;5116811;27;20518;-71
2022/06/05 00:50:19;;;;;;;5.75;4.95;;;;;;;19.94;64.05;95012.91;5135004;27;20035;-70
2022/06/05 00:52:47;;;;;;;9.45;5.53;;;;;;;19.94;64.41;95018.97;5116443;27;20047;-70
2022/06/05 00:55:12;;;;;;;7.28;5.55;;;;;;;19.92;64.67;95021.00;5116330;27;20027;-70
2022/06/05 00:57:38;;;;;;;8.45;5.80;;;;;;;19.81;64.62;95016.16;5116546;27;20077;-70
2022/06/05 01:00:27;;;;;;;7.22;5.70;;;;;;;19.77;64.77;95018.31;5116476;27;20067;-70
2022/06/05 01:02:53;;;;;;;9.43;5.65;;;;;;;19.75;64.90;95014.22;5133642;27;20035;-70
2022/06/05 01:05:19;;;;;;;6.57;5.63;;;;;;;19.71;64.97;95015.59;5116492;27;20035;-71
2022/06/05 01:07:45;;;;;;;7.10;4.88;;;;;;;19.71;64.65;95023.50;5116575;27;20031;-70
2022/06/05 01:10:11;;;;;;;7.82;5.47;;;;;;;19.66;64.64;95020.56;5133338;27;20031;-70
2022/06/05 01:12:45;;;;;;;6.47;5.30;;;;;;;19.63;64.75;95017.25;5116323;27;20019;-70
2022/06/05 01:15:11;;;;;;;7.75;5.68;;;;;;;19.63;64.05;95016.44;5134230;27;20041;-71
2022/06/05 01:17:42;;;;;;;6.10;5.40;;;;;;;19.56;64.50;95011.06;5133230;27;20027;-71
2022/06/05 01:20:38;;;;;;;6.72;5.80;;;;;;;19.50;64.61;95010.94;5134383;27;20408;-70
2022/06/05 01:23:11;;;;;;;7.15;5.40;;;;;;;19.55;64.90;95014.69;5129231;27;20019;-70
2022/06/05 01:25:56;;;;;;;7.88;5.38;;;;;;;19.57;64.35;95010.06;5113702;28;20032;-71
2022/06/05 01:28:23;;;;;;;11.75;5.82;;;;;;;19.51;64.34;95004.69;5113596;28;20516;-70
2022/06/05 01:30:55;;;;;;;6.18;5.28;;;;;;;19.54;64.31;95001.72;5095450;28;20020;-71
2022/06/05 01:33:25;;;;;;;7.53;5.45;;;;;;;19.46;64.58;95005.22;5112240;28;20039;-70
2022/06/05 01:36:05;;;;;;;6.57;5.60;;;;;;;19.40;64.74;95001.47;5078481;28;20126;-70
2022/06/05 01:38:33;;;;;;;8.87;5.83;;;;;;;19.38;65.43;94997.38;5112218;28;20045;-71
2022/06/05 01:41:02;;;;;;;7.13;6.00;;;;;;;19.28;66.11;95002.91;5112170;28;20031;-70
2022/06/05 01:43:31;;;;;;;8.38;6.38;;;;;;;19.18;66.58;95007.56;5095353;28;20047;-70
2022/06/05 01:46:04;;;;;;;7.78;6.18;;;;;;;19.08;66.98;95013.06;5095230;28;20020;-70
2022/06/05 01:48:38;;;;;;;8.27;6.15;;;;;;;18.96;67.25;95001.28;5095812;28;20614;-71
2022/06/05 01:51:06;;;;;;;9.07;5.78;;;;;;;19.01;67.24;95011.31;5112044;28;20024;-70
2022/06/05 01:53:34;;;;;;;10.35;5.93;;;;;;;18.97;67.38;95005.56;5095205;28;20493;-71
2022/06/05 01:56:02;;;;;;;8.25;5.80;;;;;;;18.91;67.41;95008.88;5094781;28;20027;-70
2022/06/05 01:58:35;;;;;;;8.55;5.55;;;;;;;18.78;67.72;94998.09;5111794;28;20028;-71
2022/06/05 02:01:02;;;;;;;9.82;6.10;;;;;;;18.72;67.98;95008.31;5095232;28;20066;-70
2022/06/05 02:03:37;;;;;;;9.00;5.90;;;;;;;18.67;68.40;95010.63;5094746;28;20036;-70
2022/06/05 02:06:11;;;;;;;7.55;5.85;;;;;;;18.58;68.83;95003.75;5095010;28;20055;-71
2022/06/05 02:08:48;;;;;;;7.85;5.70;;;;;;;18.60;68.76;94999.16;5078314;28;20488;-70
2022/06/05 02:11:25;;;;;;;7.45;6.00;;;;;;;18.51;69.06;95003.63;5094653;28;20058;-71
2022/06/05 02:13:53;;;;;;;8.45;6.18;;;;;;;18.45;69.06;94999.06;5078906;28;20053;-71
2022/06/05 02:16:19;;;;;;;7.60;6.20;;;;;;;18.42;69.31;94990.69;5094758;28;20019;-70
2022/06/05 02:18:44;;;;;;;7.22;5.53;;;;;;;18.41;69.37;94995.13;5094561;28;20036;-70
2022/06/05 02:21:10;;;;;;;8.52;5.70;;;;;;;18.37;69.75;94993.84;5094339;28;20027;-70
2022/06/05 02:23:36;;;;;;;6.65;5.97;;;;;;;18.35;69.67;94987.09;5119778;27;20493;-71
2022/06/05 02:26:03;;;;;;;9.63;5.95;;;;;;;18.36;69.61;94986.09;5130968;27;20080;-71
2022/06/05 02:28:29;;;;;;;6.18;5.30;;;;;;;18.28;69.25;94995.69;5114725;27;20504;-69
2022/06/05 02:31:27;;;;;;;7.20;5.90;;;;;;;18.04;69.54;94991.31;5131990;27;20112;-69
2022/06/05 02:34:02;;;;;;;9.75;5.82;;;;;;;17.96;70.12;95003.66;5131919;27;20482;-69
2022/06/05 02:36:53;;;;;;;6.53;5.82;;;;;;;17.97;70.45;95000.88;5132907;27;20400;-69
2022/06/05 02:39:47;;;;;;;6.93;5.90;;;;;;;17.97;70.64;95005.28;5131638;27;20023;-69
2022/06/05 02:42:18;;;;;;;7.43;6.05;;;;;;;17.97;70.76;94992.13;5132858;27;20415;-69
2022/06/05 02:44:53;;;;;;;11.93;6.68;;;;;;;17.90;70.93;94989.38;5131499;27;20028;-69
2022/06/05 02:47:19;;;;;;;10.90;6.18;;;;;;;17.92;70.96;94989.22;5131490;27;20041;-69
2022/06/05 02:49:53;;;;;;;7.85;6.35;;;;;;;17.92;70.89;94984.78;5132733;27;20027;-69
2022/06/05 02:52:19;;;;;;;8.30;6.38;;;;;;;17.91;70.90;94982.31;5131078;27;20047;-69
2022/06/05 02:54:55;;;;;;;8.05;6.35;;;;;;;17.88;71.08;94974.75;5097231;27;20031;-69
2022/06/05 02:57:21;;;;;;;6.70;5.97;;;;;;;17.92;70.85;94976.09;5114942;27;20420;-69
2022/06/05 02:59:46;;;;;;;7.47;5.95;;;;;;;17.96;70.68;94977.38;5131250;27;20023;-69
2022/06/05 03:04:55;;;;;;;9.77;5.95;;;;;;;17.92;70.54;94979.53;5132469;27;20035;-69
2022/06/05 03:07:21;;;;;;;8.45;6.03;;;;;;;17.82;70.49;94977.06;5131186;27;20458;-69
2022/06/05 03:09:47;;;;;;;8.25;6.13;;;;;;;17.73;70.37;94985.94;5131130;27;20030;-69
2022/06/05 03:12:13;;;;;;;7.60;5.88;;;;;;;17.69;71.15;94984.63;5132369;27;20031;-69
2022/06/05 03:14:38;;;;;;;7.88;5.82;;;;;;;17.68;71.34;94982.16;5096879;27;20080;-69
2022/06/05 03:17:04;;;;;;;8.13;6.07;;;;;;;17.62;71.47;94976.59;5130978;27;20031;-69
2022/06/05 03:19:29;;;;;;;9.95;6.13;;;;;;;17.65;71.91;94991.19;5113864;27;20084;-69
2022/06/05 03:21:55;;;;;;;8.10;6.15;;;;;;;17.71;71.81;94993.16;5132252;27;20046;-69
2022/06/05 03:24:20;;;;;;;7.95;6.13;;;;;;;17.71;71.71;94977.38;5117034;27;20027;-69
2022/06/05 03:26:46;;;;;;;7.70;6.03;;;;;;;17.76;71.73;94990.84;5110297;28;20032;-69
2022/06/05 03:29:11;;;;;;;8.07;6.70;;;;;;;17.77;71.75;95000.34;5110234;28;20027;-69
2022/06/05 03:31:37;;;;;;;7.07;6.40;;;;;;;17.72;72.06;94994.81;5111504;28;20035;-69
2022/06/05 03:34:03;;;;;;;8.27;7.47;;;;;;;17.80;71.73;95002.72;5110189;28;20051;-69
2022/06/05 03:36:28;;;;;;;10.68;7.07;;;;;;;17.83;72.07;95004.19;5111353;28;20059;-69
2022/06/05 03:38:53;;;;;;;8.50;7.25;;;;;;;17.80;72.75;95007.13;5110030;28;20500;-69
2022/06/05 03:41:19;;;;;;;9.27;7.13;;;;;;;17.78;72.81;95002.03;5093054;28;20416;-69
2022/06/05 03:43:45;;;;;;;8.45;7.03;;;;;;;17.83;72.82;95002.38;5110041;28;20148;-69
2022/06/05 03:46:11;;;;;;;8.18;6.82;;;;;;;17.88;72.80;95009.72;5109967;28;20039;-69
2022/06/05 03:48:37;;;;;;;7.97;6.53;;;;;;;18.01;72.55;95011.84;5093151;28;20474;-69
2022/06/05 03:51:07;;;;;;;7.80;6.85;;;;;;;18.05;72.39;95016.63;5093091;28;20067;-69
2022/06/05 03:53:32;;;;;;;12.10;6.90;;;;;;;18.02;73.16;95010.84;5093235;28;20421;-69
2022/06/05 03:55:58;;;;;;;8.70;6.80;;;;;;;18.15;72.81;95018.22;5109831;28;20024;-69
2022/06/05 03:58:23;;;;;;;9.10;6.78;;;;;;;18.16;73.13;95010.16;5092857;28;20041;-69
2022/06/05 04:00:51;;;;;;;7.78;6.97;;;;;;;18.27;72.85;95015.06;5109878;28;20028;-70
2022/06/05 04:03:16;;;;;;;9.35;6.90;;;;;;;18.42;73.04;95017.81;5109777;28;20046;-69
2022/06/05 04:05:43;;;;;;;8.63;6.35;;;;;;;18.60;72.25;95014.13;5109863;28;20401;-69
2022/06/05 04:08:08;;;;;;;8.50;6.20;;;;;;;19.22;70.50;95011.47;5091722;28;20057;-69
2022/06/05 04:10:34;;;;;;;7.43;6.40;;;;;;;20.08;67.49;95014.72;5110832;28;20024;-69
2022/06/05 04:12:59;;;;;;;7.25;6.15;;;;;;;20.78;65.32;95017.91;5111303;28;20090;-69
2022/06/05 04:15:25;;;;;;;6.68;5.97;;;;;;;21.29;62.62;95016.06;5104574;28;20030;-69
2022/06/05 04:17:50;;;;;;;9.00;6.57;;;;;;;21.83;60.14;95012.88;5129002;27;20084;-70
2022/06/05 04:20:16;;;;;;;7.90;6.38;;;;;;;22.39;58.81;95006.78;5142103;27;20042;-70
2022/06/05 04:22:41;;;;;;;8.38;6.18;;;;;;;22.97;56.62;95012.56;5133507;27;20083;-70
2022/06/05 04:25:08;;;;;;;9.07;6.30;;;;;;;23.47;54.74;95004.31;5134127;27;20080;-69
2022/06/05 04:27:33;;;;;;;12.52;6.07;;;;;;;23.94;53.80;95007.84;5110308;28;20110;-70
2022/06/05 04:29:59;;;;;;;7.88;5.97;;;;;;;24.29;52.76;95005.75;5126619;28;20030;-70
2022/06/05 04:32:25;;;;;;;9.48;6.07;;;;;;;24.83;51.32;94997.66;5112903;28;20055;-70
2022/06/05 04:34:51;;;;;;;11.68;6.00;;;;;;;25.07;50.25;94994.25;5112780;28;20547;-73
2022/06/05 04:37:16;;;;;;;8.18;5.93;;;;;;;25.53;49.03;94995.03;5119157;28;20409;-72
2022/06/05 04:39:42;;;;;;;10.10;6.10;;;;;;;25.82;48.15;94998.88;5122541;27;20215;-72
2022/06/05 04:42:07;;;;;;;8.73;6.15;;;;;;;26.00;47.22;95000.84;5105342;28;20103;-72
2022/06/05 04:44:33;;;;;;;8.27;6.30;;;;;;;25.77;47.66;94996.06;5101299;28;20039;-72
2022/06/05 04:46:58;;;;;;;10.82;6.50;;;;;;;24.50;50.72;94991.41;5127044;28;20658;-72
2022/06/05 04:49:24;;;;;;;8.90;6.93;;;;;;;23.66;53.13;94996.59;5131266;27;20050;-71
2022/06/05 04:51:50;;;;;;;7.97;6.45;;;;;;;23.48;53.61;94997.16;5119418;27;20047;-69
2022/06/05 04:54:15;;;;;;;8.73;6.78;;;;;;;23.27;54.36;94993.69;5133139;27;20160;-69
2022/06/05 04:56:41;;;;;;;9.05;5.75;;;;;;;23.13;55.61;94990.19;5133794;27;20028;-69
2022/06/05 04:59:06;;;;;;;8.85;6.25;;;;;;;23.07;56.28;94987.53;5133532;27;20035;-69
2022/06/05 05:01:33;;;;;;;10.75;6.47;;;;;;;23.15;56.01;94989.97;5122450;27;20031;-70
2022/06/05 05:04:01;;;;;;;8.13;6.32;;;;;;;23.15;56.58;94982.03;5097288;27;20027;-71
2022/06/05 05:06:26;;;;;;;10.57;6.45;;;;;;;23.10;56.10;94995.91;5116197;27;20035;-70
2022/06/05 05:08:52;;;;;;;8.82;7.50;;;;;;;23.18;56.12;94998.38;5132041;27;20115;-70
2022/06/05 05:11:18;;;;;;;9.27;7.28;;;;;;;23.23;56.48;94999.56;5112936;27;20035;-70
2022/06/05 05:13:43;;;;;;;10.40;6.60;;;;;;;23.25;55.62;95008.16;5095370;27;20032;-72
2022/06/05 05:16:08;;;;;;;10.43;7.38;;;;;;;23.33;55.74;95002.66;5097085;27;20027;-70
2022/06/05 05:18:34;;;;;;;8.63;7.38;;;;;;;23.27;56.19;95006.94;5129322;27;20039;-70
2022/06/05 05:21:08;;;;;;;10.68;7.28;;;;;;;23.35;56.32;95009.41;5140888;27;20026;-70
2022/06/05 05:23:33;;;;;;;11.52;7.47;;;;;;;23.29;56.56;95010.22;5131982;27;20449;-71
2022/06/05 05:26:08;;;;;;;8.63;7.00;;;;;;;23.33;56.06;95014.06;5130291;27;20111;-70
2022/06/05 05:28:33;;;;;;;7.40;6.55;;;;;;;23.34;56.43;95014.88;5130109;27;20081;-70
2022/06/05 05:30:58;;;;;;;11.63;7.45;;;;;;;23.39;55.73;95020.41;5118279;27;20408;-70
2022/06/05 05:33:24;;;;;;;9.05;6.75;;;;;;;23.49;56.23;95020.03;5110372;27;20093;-70
2022/06/05 05:35:50;;;;;;;7.25;6.25;;;;;;;23.61;56.85;95019.22;5118443;27;20030;-70
2022/06/05 05:38:15;;;;;;;11.98;6.70;;;;;;;23.81;56.23;95021.09;5129967;27;20027;-70
2022/06/05 05:43:25;;;;;;;12.35;6.60;;;;;;;23.96;53.99;95019.06;5118997;27;20145;-70
2022/06/05 05:45:50;;;;;;;6.65;5.95;;;;;;;24.12;53.74;95025.75;5136885;27;20019;-71
2022/06/05 05:48:16;;;;;;;10.18;6.60;;;;;;;24.28;52.67;95021.88;5093522;27;20507;-71
2022/06/05 05:50:45;;;;;;;9.15;6.90;;;;;;;24.40;51.95;95012.25;5077212;28;20036;-71
2022/06/05 05:53:11;;;;;;;8.93;6.55;;;;;;;24.42;51.87;95020.81;5124127;27;20103;-72
2022/06/05 05:55:36;;;;;;;10.30;6.93;;;;;;;24.39;52.48;95026.53;5131235;27;20039;-71
2022/06/05 05:58:02;;;;;;;8.25;6.82;;;;;;;24.50;52.93;95019.81;5097950;28;20557;-71
2022/06/05 06:00:27;;;;;;;9.45;6.68;;;;;;;24.59;52.37;95018.56;5111200;27;20036;-71
2022/06/05 06:02:53;;;;;;;12.50;6.20;;;;;;;24.68;51.87;95016.47;5111738;28;20036;-71
2022/06/05 06:05:19;;;;;;;8.07;6.70;;;;;;;24.81;51.99;95020.94;5111775;28;20038;-71
2022/06/05 06:07:45;;;;;;;9.50;6.90;;;;;;;24.94;51.41;95024.38;5120787;27;20063;-71
2022/06/05 06:10:10;;;;;;;10.35;7.22;;;;;;;24.96;51.49;95022.31;5113827;27;20047;-72
2022/06/05 06:12:36;;;;;;;10.55;7.28;;;;;;;25.04;51.00;95023.09;5154381;27;20384;-71
2022/06/05 06:15:02;;;;;;;9.45;6.63;;;;;;;25.11;50.92;95027.34;5136933;27;20195;-71
2022/06/05 06:17:27;;;;;;;8.02;6.60;;;;;;;25.23;50.79;95019.53;5131603;27;20033;-71
2022/06/05 06:19:52;;;;;;;10.73;6.88;;;;;;;25.41;50.64;95024.97;5108905;27;20031;-71
2022/06/05 06:22:18;;;;;;;12.88;7.45;;;;;;;25.39;50.42;95029.69;5117716;27;20032;-71
2022/06/05 06:24:44;;;;;;;9.90;7.22;;;;;;;25.44;50.93;95028.25;5125600;27;20039;-71
2022/06/05 06:27:09;;;;;;;10.52;8.10;;;;;;;25.52;49.78;95023.47;5099776;27;20489;-72
2022/06/05 06:29:35;;;;;;;10.15;7.35;;;;;;;25.39;51.06;95021.69;5134954;27;20034;-71
2022/06/05 06:32:01;;;;;;;14.20;7.65;;;;;;;25.54;51.04;95013.41;5134159;27;20481;-70
2022/06/05 06:34:26;;;;;;;9.35;7.22;;;;;;;25.62;50.68;95015.00;5122186;27;20035;-70
2022/06/05 06:36:52;;;;;;;12.93;7.18;;;;;;;25.75;50.12;95006.13;5118413;27;20023;-72
2022/06/05 06:39:18;;;;;;;9.98;6.80;;;;;;;25.89;49.54;95014.84;5111077;28;20024;-70
2022/06/05 06:41:43;;;;;;;9.85;8.02;;;;;;;25.90;49.16;95011.16;5133821;27;20111;-71
2022/06/05 06:44:09;;;;;;;10.93;7.63;;;;;;;25.87;49.72;95011.59;5134896;27;20038;-71
2022/06/05 06:46:36;;;;;;;15.60;7.03;;;;;;;25.92;50.21;94991.28;5129477;27;20063;-72
2022/06/05 06:49:01;;;;;;;8.05;6.60;;;;;;;26.16;50.55;95018.06;5094623;27;20028;-72
2022/06/05 06:51:27;;;;;;;10.43;6.63;;;;;;;26.25;50.24;95006.13;5122806;27;20034;-72
2022/06/05 06:53:52;;;;;;;9.65;7.13;;;;;;;26.38;49.61;95008.63;5130598;27;20080;-71
2022/06/05 06:56:23;;;;;;;9.35;6.72;;;;;;;26.35;49.38;95003.75;5111108;27;20396;-72
2022/06/05 06:58:49;;;;;;;10.35;6.72;;;;;;;26.42;49.34;94999.19;5126487;27;20071;-72
2022/06/05 07:01:14;;;;;;;13.05;8.50;;;;;;;26.68;49.66;95003.44;5124790;27;20027;-73
2022/06/05 07:03:40;;;;;;;9.85;6.47;;;;;;;26.86;48.13;94999.16;5149837;27;20023;-72
2022/06/05 07:06:08;;;;;;;10.23;6.65;;;;;;;27.01;47.54;95002.22;5119216;27;20596;-72
2022/06/05 07:08:34;;;;;;;13.18;7.65;;;;;;;27.21;46.83;95011.84;5125659;27;20125;-71
2022/06/05 07:10:59;;;;;;;10.93;6.88;;;;;;;27.26;46.91;94998.66;5111968;27;20477;-71
2022/06/05 07:13:25;;;;;;;9.90;6.55;;;;;;;27.30;46.75;94999.81;5120003;27;20038;-71
2022/06/05 07:15:50;;;;;;;8.00;6.15;;;;;;;27.45;46.20;94996.75;5113020;27;20038;-71
2022/06/05 07:18:16;;;;;;;9.45;6.45;;;;;;;27.60;45.99;95008.59;5127347;27;20126;-71
2022/06/05 07:20:42;;;;;;;8.77;6.47;;;;;;;27.69;45.43;94998.41;5131310;27;20019;-71
2022/06/05 07:23:08;;;;;;;7.13;5.50;;;;;;;27.84;45.74;95001.50;5113085;27;20038;-71
2022/06/05 07:25:34;;;;;;;10.05;6.25;;;;;;;28.06;45.45;95003.63;5129900;27;20502;-72
2022/06/05 07:27:59;;;;;;;9.13;5.78;;;;;;;28.11;44.60;94997.56;5128954;27;20030;-71
2022/06/05 07:30:25;;;;;;;7.13;5.50;;;;;;;28.10;44.54;95003.97;5129904;27;20065;-71
2022/06/05 07:32:50;;;;;;;7.70;5.30;;;;;;;28.22;44.09;95002.09;5128697;27;20019;-71
2022/06/05 07:35:16;;;;;;;6.75;5.47;;;;;;;28.27;43.43;94994.19;5129684;27;20051;-71
2022/06/05 07:37:41;;;;;;;7.80;5.75;;;;;;;28.17;43.46;94993.97;5111321;27;20382;-71
2022/06/05 07:40:08;;;;;;;8.77;5.53;;;;;;;28.25;44.53;94996.28;5129157;27;20409;-71
2022/06/05 07:42:37;;;;;;;6.82;5.43;;;;;;;28.40;44.10;94988.63;5111086;27;20034;-71
2022/06/05 07:45:03;;;;;;;6.60;5.40;;;;;;;28.54;42.86;94993.75;5129817;27;20034;-71
2022/06/05 07:47:28;;;;;;;6.30;4.70;;;;;;;28.53;41.88;94984.94;5111351;28;20031;-71
2022/06/05 07:49:54;;;;;;;7.72;5.30;;;;;;;28.58;42.88;94987.69;5130620;27;20023;-71
2022/06/05 07:55:04;;;;;;;8.70;5.13;;;;;;;28.78;42.70;94968.59;5131177;28;20103;-71
2022/06/05 07:57:29;;;;;;;8.57;5.00;;;;;;;28.82;42.82;94972.41;5132071;27;20023;-71
2022/06/05 07:59:54;;;;;;;5.45;4.63;;;;;;;28.78;42.35;94968.59;5131628;27;20075;-71
2022/06/05 08:02:22;;;;;;;6.38;4.70;;;;;;;28.76;42.34;94956.53;5130356;27;20039;-71
2022/06/05 08:04:48;;;;;;;6.07;4.85;;;;;;;28.83;42.47;94966.00;5130297;27;20031;-71
2022/06/05 08:07:15;;;;;;;8.02;4.75;;;;;;;28.93;41.80;94966.22;5130413;28;20027;-71
2022/06/05 08:09:41;;;;;;;6.60;4.70;;;;;;;28.98;41.23;94960.16;5130397;28;20027;-71
2022/06/05 08:12:08;;;;;;;10.18;4.90;;;;;;;29.03;41.13;94962.09;5130286;27;20496;-71
2022/06/05 08:14:35;;;;;;;6.60;4.32;;;;;;;29.16;41.19;94954.66;5113256;28;20024;-71
2022/06/05 08:17:03;;;;;;;7.13;4.60;;;;;;;29.26;40.96;94964.72;5131662;27;20099;-71
2022/06/05 08:19:28;;;;;;;6.75;4.50;;;;;;;29.22;40.97;94962.75;5130229;28;20031;-71
2022/06/05 08:21:54;;;;;;;9.77;4.57;;;;;;;29.26;40.89;94963.94;5096144;28;20027;-71
2022/06/05 08:24:20;;;;;;;6.50;4.00;;;;;;;29.24;40.96;94961.47;5132334;27;20064;-71
2022/06/05 08:26:45;;;;;;;5.00;4.00;;;;;;;29.39;40.78;94967.13;5135510;27;20027;-71
2022/06/05 08:29:10;;;;;;;6.10;4.07;;;;;;;29.44;40.26;94961.03;5135396;27;20051;-71
2022/06/05 08:31:36;;;;;;;8.40;4.30;;;;;;;29.32;40.46;94954.94;5135430;27;20396;-71
2022/06/05 08:34:02;;;;;;;6.15;4.20;;;;;;;29.30;40.65;94960.50;5117103;27;20049;-71
2022/06/05 08:36:28;;;;;;;8.70;4.80;;;;;;;29.36;40.78;94959.56;5116909;27;20023;-71
2022/06/05 08:41:43;;;;;;;5.28;3.63;;;;;;;29.29;38.02;94950.88;5134161;27;20076;-70
2022/06/05 08:44:23;;;;;;;6.38;3.88;;;;;;;29.18;38.70;94954.41;5135115;27;20031;-71
2022/06/05 08:47:01;;;;;;;5.88;3.30;;;;;;;29.24;38.83;94953.44;5135394;27;20026;-71
2022/06/05 08:49:31;;;;;;;7.68;3.83;;;;;;;29.24;38.91;94953.44;5132417;27;20055;-71
2022/06/05 08:52:20;;;;;;;5.80;3.53;;;;;;;29.26;38.69;94950.56;5131408;27;20047;-71
2022/06/05 08:55:09;;;;;;;4.65;3.50;;;;;;;29.40;39.21;94950.00;5131891;27;20039;-71
2022/06/05 08:57:52;;;;;;;6.60;3.90;;;;;;;29.42;39.17;94949.78;5115902;27;20051;-71
2022/06/05 09:00:20;;;;;;;5.55;3.40;;;;;;;29.45;39.15;94951.13;5131772;27;20031;-71
2022/06/05 09:02:52;;;;;;;7.45;3.97;;;;;;;29.47;39.51;94952.50;5114748;27;20027;-71
2022/06/05 09:05:20;;;;;;;8.02;3.47;;;;;;;29.66;38.76;94946.97;5115695;27;20123;-71
2022/06/05 09:07:51;;;;;;;6.65;3.17;;;;;;;29.75;35.44;94946.31;5133558;27;20500;-71
2022/06/05 09:10:54;;;;;;;6.72;2.88;;;;;;;29.81;36.02;94942.69;5133409;27;20114;-71
2022/06/05 09:13:24;;;;;;;5.25;2.78;;;;;;;29.84;34.23;94960.13;5110729;27;20049;-71
2022/06/05 09:16:01;;;;;;;8.05;3.15;;;;;;;29.92;32.93;94946.31;5133210;27;20092;-72
2022/06/05 09:18:38;;;;;;;5.70;2.78;;;;;;;29.92;33.18;94951.69;5133231;27;20035;-71
2022/06/05 09:21:15;;;;;;;14.30;3.50;;;;;;;29.91;34.36;94938.53;5134657;27;20027;-71
2022/06/05 09:23:40;;;;;;;4.78;3.00;;;;;;;29.95;35.04;94939.66;5133174;27;20278;-71
2022/06/05 09:26:18;;;;;;;8.15;3.58;;;;;;;30.10;34.57;94941.75;5134361;27;20496;-71
2022/06/05 09:29:06;;;;;;;5.10;3.25;;;;;;;30.09;35.19;94924.88;5133150;27;20054;-71
2022/06/05 09:31:44;;;;;;;7.68;3.20;;;;;;;30.20;35.83;94926.66;5116397;27;20033;-71
2022/06/05 09:34:14;;;;;;;4.43;3.00;;;;;;;30.22;34.11;94937.13;5132836;27;20035;-71
2022/06/05 09:36:41;;;;;;;;;;;;;;;30.24;34.73;94929.66;5132976;27;20389;-71
2022/06/05 09:39:55;;;;;;;5.22;2.97;;;;;;;30.28;34.47;94923.56;5133973;27;19926;-71
2022/06/05 09:42:30;;;;;;;6.15;2.80;;;;;;;30.32;33.93;94923.88;5123709;27;20046;-71
2022/06/05 09:45:06;;;;;;;5.15;2.70;;;;;;;30.37;34.18;94925.78;5132735;27;20504;-72
2022/06/05 09:47:39;;;;;;;6.07;2.70;;;;;;;30.28;33.15;94928.94;5116293;27;20031;-71
2022/06/05 09:50:13;;;;;;;6.43;2.88;;;;;;;30.32;34.08;94928.44;5115790;27;20027;-71
2022/06/05 09:52:40;;;;;;;5.72;2.70;;;;;;;30.39;34.17;94929.03;5116143;27;20107;-71
2022/06/05 09:55:08;;;;;;;4.30;2.60;;;;;;;30.39;32.10;94926.38;5133648;27;20035;-71
2022/06/05 10:00:42;;;;;;;11.20;2.90;;;;;;;30.39;33.57;94923.69;5133614;27;20459;-71
2022/06/05 10:03:15;;;;;;;6.00;3.03;;;;;;;30.37;33.30;94920.44;5133937;27;20582;-71
2022/06/05 10:05:45;;;;;;;5.70;2.65;;;;;;;30.16;33.04;94919.34;5133627;27;20028;-71
2022/06/05 10:08:11;;;;;;;7.53;2.90;;;;;;;30.09;34.21;94930.25;5132429;27;20039;-72
2022/06/05 10:10:38;;;;;;;5.38;2.80;;;;;;;30.20;34.36;94923.97;5133499;27;20080;-71
2022/06/05 10:13:42;;;;;;;6.75;2.60;;;;;;;30.26;33.94;94916.84;5115349;27;20484;-71
2022/06/05 10:16:31;;;;;;;6.13;2.65;;;;;;;30.31;34.88;94916.88;5132095;27;20088;-71
2022/06/05 10:19:22;;;;;;;5.43;2.90;;;;;;;30.24;33.95;94906.34;5132165;27;20035;-71
2022/06/05 10:21:51;;;;;;;4.97;2.70;;;;;;;30.35;34.14;94919.91;5133335;27;20098;-71
2022/06/05 10:24:20;;;;;;;5.32;3.10;;;;;;;30.43;32.51;94901.53;5115117;27;20099;-72
2022/06/05 10:26:46;;;;;;;4.97;2.95;;;;;;;30.36;32.48;94900.06;5133282;27;20054;-72
2022/06/05 10:29:31;;;;;;;5.85;2.95;;;;;;;30.42;33.24;94897.22;5131834;27;20096;-71
2022/06/05 10:32:09;;;;;;;6.40;2.70;;;;;;;30.41;33.67;94902.81;5133190;27;20030;-71
2022/06/05 10:34:53;;;;;;;4.65;2.65;;;;;;;30.48;33.60;94892.75;5131784;27;20042;-71
2022/06/05 10:37:20;;;;;;;4.28;2.67;;;;;;;30.51;33.80;94889.56;5131791;27;20023;-71
2022/06/05 10:40:28;;;;;;;4.82;2.75;;;;;;;30.44;32.60;94886.25;5131842;27;20038;-71
2022/06/05 10:43:23;;;;;;;6.15;2.80;;;;;;;30.41;31.69;94881.38;5131830;27;20031;-72
2022/06/05 10:46:01;;;;;;;5.20;2.80;;;;;;;30.44;32.83;94875.53;5126155;27;20076;-71
2022/06/05 10:48:41;;;;;;;6.07;2.80;;;;;;;30.44;32.53;94883.56;5130833;27;20041;-71
2022/06/05 10:51:23;;;;;;;5.50;3.00;;;;;;;30.35;32.98;94877.84;5132599;27;20027;-72
2022/06/05 10:54:05;;;;;;;7.32;2.75;;;;;;;30.28;32.08;94866.47;5115434;27;20035;-71
2022/06/05 10:56:47;;;;;;;5.55;2.67;;;;;;;30.36;32.30;94865.25;5114980;27;20031;-72
2022/06/05 10:59:18;;;;;;;5.63;3.00;;;;;;;30.40;32.81;94859.16;5131304;27;20034;-72
2022/06/05 11:01:49;;;;;;;6.50;3.00;;;;;;;30.44;32.00;94862.94;5132568;27;20442;-71
2022/06/05 11:04:24;;;;;;;5.95;2.70;;;;;;;30.45;32.93;94863.75;5132405;27;20035;-72
2022/06/05 11:07:34;;;;;;;5.65;2.90;;;;;;;30.52;32.85;94864.38;5114948;27;20373;-71
2022/06/05 11:10:15;;;;;;;5.80;2.65;;;;;;;30.57;33.40;94852.91;5115698;27;20112;-71
2022/06/05 11:15:49;;;;;;;5.95;2.78;;;;;;;30.69;32.07;94865.09;5117797;27;20560;-72
2022/06/05 11:18:38;;;;;;;5.45;2.53;;;;;;;30.67;32.36;94861.03;5132137;27;20050;-72
2022/06/05 11:21:04;;;;;;;3.88;2.58;;;;;;;30.72;32.68;94866.47;5131226;27;20037;-71
2022/06/05 11:23:40;;;;;;;6.68;2.80;;;;;;;30.78;32.85;94857.41;5132026;27;20035;-71
2022/06/05 11:26:34;;;;;;;6.18;2.88;;;;;;;30.87;33.20;94857.78;5115376;27;20039;-71
2022/06/05 11:29:10;;;;;;;5.35;2.95;;;;;;;30.84;32.32;94851.09;5111205;27;20534;-71
2022/06/05 11:31:58;;;;;;;6.28;3.30;;;;;;;30.83;32.72;94844.09;5130733;27;20046;-71
2022/06/05 11:35:01;;;;;;;5.53;2.72;;;;;;;30.81;32.63;94856.94;5131593;27;20039;-71
2022/06/05 11:37:55;;;;;;;3.38;2.80;;;;;;;30.61;32.23;94857.50;5096070;27;20058;-71
2022/06/05 11:40:42;;;;;;;4.15;2.92;;;;;;;30.59;32.81;94853.44;5115583;28;20069;-71
2022/06/05 11:43:07;;;;;;;6.18;2.97;;;;;;;30.50;33.60;94847.72;5130912;27;20098;-71
2022/06/05 11:45:53;;;;;;;4.78;3.17;;;;;;;30.45;33.14;94847.66;5131832;27;20114;-71
2022/06/05 11:48:44;;;;;;;4.50;3.00;;;;;;;30.42;34.72;94854.34;5130478;28;20027;-71
2022/06/05 11:51:30;;;;;;;3.70;2.50;;;;;;;30.29;32.97;94838.66;5130581;28;20031;-72
2022/06/05 11:54:04;;;;;;;6.80;2.40;;;;;;;30.28;32.26;94845.06;5113877;28;20068;-71
2022/06/05 11:56:39;;;;;;;5.32;2.72;;;;;;;30.32;31.88;94837.34;5130422;27;20027;-71
2022/06/05 11:59:51;;;;;;;4.60;2.45;;;;;;;30.38;31.72;94836.34;5115552;27;20046;-71
2022/06/05 12:02:38;;;;;;;5.13;2.40;;;;;;;30.42;32.18;94826.72;5134515;27;20031;-71
2022/06/05 12:05:39;;;;;;;4.20;2.30;;;;;;;30.47;32.23;94832.97;5135942;27;20043;-71
2022/06/05 12:08:18;;;;;;;6.50;2.30;;;;;;;30.52;31.72;94836.78;5133894;27;20038;-71